Fort Spring, West Virginia
Current Conditions -  °F | °C
As of 4:35 AM on Monday 20 Oct 2014 (Local Time) from KLWB Reporting Station
Clear Clear  
Wind Chill: 34°   Ceiling: Unl
Heat Index: 34°   Visibility: 10mi
Dew Point: 33°   Wind: 3mph
Humidity: 94%   Direction: 40°NE
Pressure: 30.08"   Gusts: NA
Location:  37.74°N, 80.54°W
Report Text: KLWB 200835Z AUTO 04003KT 10SM CLR 01/00 A3008 RMK AO2 T00130004
Loading
Personal Weather Stations






























Interactive Weather Map
Tropical Storm Tracking
New forecast layout! Learn more

10-Day Weather Forecast

Advertisements
Track Severe Weather on mobile